Pagina principale
METAR-TAF:

METAR-TAF

Aeroporti :

Trapani, Italia

Aeroporto di Trapani-Birgi

latitudine: 37-55N, longitudine: 012-30E, altezza: 7 m

Osservazione

Il bollettino è stato emesso 37 minuti fa, alle 09:55 UTC
Vento 7 kt da ovest/nord-ovest
Temperature 24°C
Umidità 41%
Pressione 1020 hPa
Visibilità 10 km o più
Nubi sparse ad un'altezza di 2200 ft

METAR: LICT 210955Z 30007KT 9999 SCT022 24/10 Q1020 RMK SCT VIS MIN 9999 WIND THR13 28004KT BLU

Ora: 12:32 (10:32 UTC)

Previsione

Il bollettino è stato emesso 2 ore e 32 minuti fa, alle 08:00 UTC
Previsione valida dal 21 alle 09 UTC al 21 alle 18 UTC
Vento 4 kt da direzioni variabili
Visibilità 10 km o più
Poco nuvoloso ad un'altezza di 2500 ft
Evoluzione graduale
dal 21 alle 10 UTC al 21 alle 12 UTC
Vento 8 kt da nord-ovest

TAF: LICT 210800Z 2109/2118 VRB04KT 9999 FEW025 BECMG 2110/2112 31008KT

Osservazioni e previsioni meteorologiche di più di 4000 aeroporti (messaggi METAR e TAF).

Le stazioni disponibili sono rappresentate dai dischi gialli e rossi sulla carta.

Puntare il mouse per vedere il nome della stazione.

Clicca sopra per visualizzare le osservazioni e previsioni meteorologiche.

Per cambiare la mappa : fare clic sui pulsanti verdi con una croce nera per ingrandire, il pulsante verde con un trattino per diminuire, o sulla freccia verde per le mappe adiacenti.


METAR-TAF: